sensor_id;sensor_type;location;lat;lon;timestamp;P1;durP1;ratioP1;P2;durP2;ratioP2
79456;SDS011;69494;43.654;3.884;2023-06-14T00:01:24;4.40;;;1.70;;
79456;SDS011;69494;43.654;3.884;2023-06-14T00:03:49;3.08;;;1.30;;
79456;SDS011;69494;43.654;3.884;2023-06-14T00:06:14;3.80;;;1.40;;
79456;SDS011;69494;43.654;3.884;2023-06-14T00:08:39;3.20;;;1.40;;
79456;SDS011;69494;43.654;3.884;2023-06-14T00:11:05;3.17;;;1.40;;
79456;SDS011;69494;43.654;3.884;2023-06-14T00:13:31;3.22;;;1.33;;
79456;SDS011;69494;43.654;3.884;2023-06-14T00:15:56;3.60;;;1.50;;
79456;SDS011;69494;43.654;3.884;2023-06-14T00:18:21;4.95;;;1.45;;
79456;SDS011;69494;43.654;3.884;2023-06-14T00:20:49;3.58;;;1.65;;
79456;SDS011;69494;43.654;3.884;2023-06-14T00:23:14;3.42;;;1.40;;
79456;SDS011;69494;43.654;3.884;2023-06-14T00:25:40;4.22;;;1.33;;
79456;SDS011;69494;43.654;3.884;2023-06-14T00:28:05;3.10;;;1.27;;
79456;SDS011;69494;43.654;3.884;2023-06-14T00:30:30;5.03;;;1.60;;
79456;SDS011;69494;43.654;3.884;2023-06-14T00:32:56;3.80;;;1.48;;
79456;SDS011;69494;43.654;3.884;2023-06-14T00:35:22;3.55;;;1.52;;
79456;SDS011;69494;43.654;3.884;2023-06-14T00:37:47;3.65;;;1.50;;
79456;SDS011;69494;43.654;3.884;2023-06-14T00:40:12;3.58;;;1.60;;
79456;SDS011;69494;43.654;3.884;2023-06-14T00:42:37;3.83;;;1.67;;
79456;SDS011;69494;43.654;3.884;2023-06-14T00:45:03;3.72;;;1.50;;
79456;SDS011;69494;43.654;3.884;2023-06-14T00:47:29;3.70;;;1.48;;
79456;SDS011;69494;43.654;3.884;2023-06-14T00:49:54;3.13;;;1.38;;
79456;SDS011;69494;43.654;3.884;2023-06-14T00:52:20;2.92;;;1.17;;
79456;SDS011;69494;43.654;3.884;2023-06-14T00:54:46;2.97;;;1.33;;
79456;SDS011;69494;43.654;3.884;2023-06-14T00:57:11;3.70;;;1.33;;
79456;SDS011;69494;43.654;3.884;2023-06-14T00:59:46;3.25;;;1.30;;
79456;SDS011;69494;43.654;3.884;2023-06-14T01:02:12;3.42;;;1.48;;
79456;SDS011;69494;43.654;3.884;2023-06-14T01:04:37;4.60;;;1.45;;
79456;SDS011;69494;43.654;3.884;2023-06-14T01:12:31;3.85;;;1.48;;
79456;SDS011;69494;43.654;3.884;2023-06-14T01:14:58;3.10;;;1.30;;
79456;SDS011;69494;43.654;3.884;2023-06-14T01:17:24;3.75;;;1.48;;
79456;SDS011;69494;43.654;3.884;2023-06-14T01:19:51;3.75;;;1.48;;
79456;SDS011;69494;43.654;3.884;2023-06-14T01:22:23;3.50;;;1.40;;
79456;SDS011;69494;43.654;3.884;2023-06-14T01:24:48;4.20;;;1.45;;
79456;SDS011;69494;43.654;3.884;2023-06-14T01:27:14;3.45;;;1.55;;
79456;SDS011;69494;43.654;3.884;2023-06-14T01:29:40;3.95;;;1.52;;
79456;SDS011;69494;43.654;3.884;2023-06-14T01:32:11;3.50;;;1.13;;
79456;SDS011;69494;43.654;3.884;2023-06-14T01:34:36;2.97;;;1.15;;
79456;SDS011;69494;43.654;3.884;2023-06-14T01:37:01;3.83;;;1.30;;
79456;SDS011;69494;43.654;3.884;2023-06-14T01:39:27;2.80;;;1.27;;
79456;SDS011;69494;43.654;3.884;2023-06-14T01:41:53;5.13;;;1.25;;
79456;SDS011;69494;43.654;3.884;2023-06-14T01:44:18;2.90;;;1.27;;
79456;SDS011;69494;43.654;3.884;2023-06-14T01:46:44;4.10;;;1.50;;
79456;SDS011;69494;43.654;3.884;2023-06-14T01:49:10;3.53;;;1.33;;
79456;SDS011;69494;43.654;3.884;2023-06-14T01:51:35;3.75;;;1.50;;
79456;SDS011;69494;43.654;3.884;2023-06-14T01:54:01;3.40;;;1.38;;
79456;SDS011;69494;43.654;3.884;2023-06-14T01:56:26;3.33;;;1.30;;
79456;SDS011;69494;43.654;3.884;2023-06-14T01:58:52;3.33;;;1.30;;
79456;SDS011;69494;43.654;3.884;2023-06-14T02:03:44;3.17;;;1.33;;
79456;SDS011;69494;43.654;3.884;2023-06-14T02:06:10;3.78;;;1.40;;
79456;SDS011;69494;43.654;3.884;2023-06-14T02:08:35;2.88;;;1.27;;
79456;SDS011;69494;43.654;3.884;2023-06-14T02:11:00;4.95;;;1.45;;
79456;SDS011;69494;43.654;3.884;2023-06-14T02:13:26;3.25;;;1.27;;
79456;SDS011;69494;43.654;3.884;2023-06-14T02:15:51;3.28;;;1.23;;
79456;SDS011;69494;43.654;3.884;2023-06-14T02:18:19;2.90;;;1.20;;
79456;SDS011;69494;43.654;3.884;2023-06-14T02:20:44;4.88;;;1.40;;
79456;SDS011;69494;43.654;3.884;2023-06-14T02:23:10;3.90;;;1.70;;
79456;SDS011;69494;43.654;3.884;2023-06-14T02:25:35;3.80;;;1.42;;
79456;SDS011;69494;43.654;3.884;2023-06-14T02:28:00;3.72;;;1.52;;
79456;SDS011;69494;43.654;3.884;2023-06-14T02:30:25;3.87;;;1.50;;
79456;SDS011;69494;43.654;3.884;2023-06-14T02:32:51;3.30;;;1.47;;
79456;SDS011;69494;43.654;3.884;2023-06-14T02:35:16;3.50;;;1.40;;
79456;SDS011;69494;43.654;3.884;2023-06-14T02:37:41;3.25;;;1.30;;
79456;SDS011;69494;43.654;3.884;2023-06-14T02:40:07;3.70;;;1.50;;
79456;SDS011;69494;43.654;3.884;2023-06-14T02:42:34;3.33;;;1.35;;
79456;SDS011;69494;43.654;3.884;2023-06-14T02:44:59;3.47;;;1.30;;
79456;SDS011;69494;43.654;3.884;2023-06-14T02:47:25;3.33;;;1.38;;
79456;SDS011;69494;43.654;3.884;2023-06-14T02:49:50;3.47;;;1.40;;
79456;SDS011;69494;43.654;3.884;2023-06-14T02:52:16;3.10;;;1.30;;
79456;SDS011;69494;43.654;3.884;2023-06-14T02:54:41;3.60;;;1.40;;
79456;SDS011;69494;43.654;3.884;2023-06-14T02:57:06;3.53;;;1.42;;
79456;SDS011;69494;43.654;3.884;2023-06-14T02:59:35;3.05;;;1.30;;
79456;SDS011;69494;43.654;3.884;2023-06-14T03:02:00;4.50;;;1.50;;
79456;SDS011;69494;43.654;3.884;2023-06-14T03:04:26;3.10;;;1.27;;
79456;SDS011;69494;43.654;3.884;2023-06-14T03:06:52;3.42;;;1.40;;
79456;SDS011;69494;43.654;3.884;2023-06-14T03:09:18;2.88;;;1.20;;
79456;SDS011;69494;43.654;3.884;2023-06-14T03:11:44;3.55;;;1.35;;
79456;SDS011;69494;43.654;3.884;2023-06-14T03:14:09;3.08;;;1.30;;
79456;SDS011;69494;43.654;3.884;2023-06-14T03:16:36;3.38;;;1.50;;
79456;SDS011;69494;43.654;3.884;2023-06-14T03:19:02;3.63;;;1.23;;
79456;SDS011;69494;43.654;3.884;2023-06-14T03:21:27;2.95;;;1.30;;
79456;SDS011;69494;43.654;3.884;2023-06-14T03:23:53;3.60;;;1.40;;
79456;SDS011;69494;43.654;3.884;2023-06-14T03:26:18;3.33;;;1.30;;
79456;SDS011;69494;43.654;3.884;2023-06-14T03:28:44;3.78;;;1.40;;
79456;SDS011;69494;43.654;3.884;2023-06-14T03:31:10;3.75;;;1.45;;
79456;SDS011;69494;43.654;3.884;2023-06-14T03:33:36;4.75;;;1.70;;
79456;SDS011;69494;43.654;3.884;2023-06-14T03:36:01;4.73;;;1.40;;
79456;SDS011;69494;43.654;3.884;2023-06-14T03:38:27;4.43;;;1.42;;
79456;SDS011;69494;43.654;3.884;2023-06-14T03:40:52;3.30;;;1.37;;
79456;SDS011;69494;43.654;3.884;2023-06-14T03:43:17;3.30;;;1.40;;
79456;SDS011;69494;43.654;3.884;2023-06-14T03:45:43;3.65;;;1.48;;
79456;SDS011;69494;43.654;3.884;2023-06-14T03:48:08;3.38;;;1.40;;
79456;SDS011;69494;43.654;3.884;2023-06-14T03:50:34;3.92;;;1.60;;
79456;SDS011;69494;43.654;3.884;2023-06-14T03:52:59;3.60;;;1.57;;
79456;SDS011;69494;43.654;3.884;2023-06-14T03:55:26;3.42;;;1.23;;
79456;SDS011;69494;43.654;3.884;2023-06-14T03:57:52;3.08;;;1.30;;
79456;SDS011;69494;43.654;3.884;2023-06-14T04:00:18;3.15;;;1.40;;
79456;SDS011;69494;43.654;3.884;2023-06-14T04:02:43;4.82;;;1.27;;
79456;SDS011;69494;43.654;3.884;2023-06-14T04:05:09;3.30;;;1.20;;
79456;SDS011;69494;43.654;3.884;2023-06-14T04:07:34;3.03;;;1.23;;
79456;SDS011;69494;43.654;3.884;2023-06-14T04:10:05;3.70;;;1.40;;
79456;SDS011;69494;43.654;3.884;2023-06-14T04:12:30;2.53;;;1.17;;
79456;SDS011;69494;43.654;3.884;2023-06-14T04:14:56;3.23;;;1.33;;
79456;SDS011;69494;43.654;3.884;2023-06-14T04:17:21;3.53;;;1.50;;
79456;SDS011;69494;43.654;3.884;2023-06-14T04:19:46;3.33;;;1.27;;
79456;SDS011;69494;43.654;3.884;2023-06-14T04:22:12;3.78;;;1.77;;
79456;SDS011;69494;43.654;3.884;2023-06-14T04:24:37;4.25;;;1.50;;
79456;SDS011;69494;43.654;3.884;2023-06-14T04:27:03;3.33;;;1.43;;
79456;SDS011;69494;43.654;3.884;2023-06-14T04:29:28;4.15;;;1.30;;
79456;SDS011;69494;43.654;3.884;2023-06-14T04:31:54;3.50;;;1.40;;
79456;SDS011;69494;43.654;3.884;2023-06-14T04:34:23;3.78;;;1.50;;
79456;SDS011;69494;43.654;3.884;2023-06-14T04:36:48;3.13;;;1.30;;
79456;SDS011;69494;43.654;3.884;2023-06-14T04:39:17;3.30;;;1.17;;
79456;SDS011;69494;43.654;3.884;2023-06-14T04:41:45;3.42;;;1.40;;
79456;SDS011;69494;43.654;3.884;2023-06-14T04:44:12;3.13;;;1.17;;
79456;SDS011;69494;43.654;3.884;2023-06-14T04:46:37;3.05;;;1.20;;
79456;SDS011;69494;43.654;3.884;2023-06-14T04:49:10;3.67;;;1.60;;
79456;SDS011;69494;43.654;3.884;2023-06-14T04:51:39;2.95;;;1.30;;
79456;SDS011;69494;43.654;3.884;2023-06-14T04:54:05;4.05;;;1.52;;
79456;SDS011;69494;43.654;3.884;2023-06-14T04:56:30;3.00;;;1.13;;
79456;SDS011;69494;43.654;3.884;2023-06-14T04:58:55;3.07;;;1.40;;
79456;SDS011;69494;43.654;3.884;2023-06-14T05:01:21;3.40;;;1.27;;
79456;SDS011;69494;43.654;3.884;2023-06-14T05:03:48;3.28;;;1.30;;
79456;SDS011;69494;43.654;3.884;2023-06-14T05:06:14;3.45;;;1.40;;
79456;SDS011;69494;43.654;3.884;2023-06-14T05:08:39;3.28;;;1.30;;
79456;SDS011;69494;43.654;3.884;2023-06-14T05:11:04;4.43;;;1.40;;
79456;SDS011;69494;43.654;3.884;2023-06-14T05:13:30;4.20;;;1.53;;
79456;SDS011;69494;43.654;3.884;2023-06-14T05:15:57;3.95;;;1.30;;
79456;SDS011;69494;43.654;3.884;2023-06-14T05:18:23;3.13;;;1.42;;
79456;SDS011;69494;43.654;3.884;2023-06-14T05:20:50;3.13;;;1.50;;
79456;SDS011;69494;43.654;3.884;2023-06-14T05:23:15;3.95;;;1.45;;
79456;SDS011;69494;43.654;3.884;2023-06-14T05:25:42;3.60;;;1.43;;
79456;SDS011;69494;43.654;3.884;2023-06-14T05:28:07;4.70;;;1.50;;
79456;SDS011;69494;43.654;3.884;2023-06-14T05:30:32;3.65;;;1.48;;
79456;SDS011;69494;43.654;3.884;2023-06-14T05:32:58;3.33;;;1.10;;
79456;SDS011;69494;43.654;3.884;2023-06-14T05:35:23;2.95;;;1.25;;
79456;SDS011;69494;43.654;3.884;2023-06-14T05:37:51;3.40;;;1.50;;
79456;SDS011;69494;43.654;3.884;2023-06-14T05:40:16;3.73;;;1.70;;
79456;SDS011;69494;43.654;3.884;2023-06-14T05:42:42;3.70;;;1.50;;
79456;SDS011;69494;43.654;3.884;2023-06-14T05:45:07;4.13;;;1.58;;
79456;SDS011;69494;43.654;3.884;2023-06-14T05:47:33;4.03;;;1.60;;
79456;SDS011;69494;43.654;3.884;2023-06-14T05:49:58;3.90;;;1.70;;
79456;SDS011;69494;43.654;3.884;2023-06-14T05:52:23;5.53;;;1.87;;
79456;SDS011;69494;43.654;3.884;2023-06-14T05:54:50;4.25;;;1.52;;
79456;SDS011;69494;43.654;3.884;2023-06-14T05:57:15;4.70;;;1.53;;
79456;SDS011;69494;43.654;3.884;2023-06-14T05:59:40;3.97;;;1.70;;
79456;SDS011;69494;43.654;3.884;2023-06-14T06:02:06;4.05;;;1.58;;
79456;SDS011;69494;43.654;3.884;2023-06-14T06:04:31;3.37;;;1.40;;
79456;SDS011;69494;43.654;3.884;2023-06-14T06:06:56;3.67;;;1.60;;
79456;SDS011;69494;43.654;3.884;2023-06-14T06:09:21;4.00;;;1.53;;
79456;SDS011;69494;43.654;3.884;2023-06-14T06:11:46;4.13;;;1.77;;
79456;SDS011;69494;43.654;3.884;2023-06-14T06:14:12;3.10;;;1.33;;
79456;SDS011;69494;43.654;3.884;2023-06-14T06:16:37;4.27;;;1.67;;
79456;SDS011;69494;43.654;3.884;2023-06-14T06:19:02;4.00;;;1.50;;
79456;SDS011;69494;43.654;3.884;2023-06-14T06:21:27;4.90;;;1.80;;
79456;SDS011;69494;43.654;3.884;2023-06-14T06:23:53;4.63;;;1.73;;
79456;SDS011;69494;43.654;3.884;2023-06-14T06:26:19;3.90;;;1.75;;
79456;SDS011;69494;43.654;3.884;2023-06-14T06:28:45;4.13;;;1.60;;
79456;SDS011;69494;43.654;3.884;2023-06-14T06:31:10;8.00;;;2.30;;
79456;SDS011;69494;43.654;3.884;2023-06-14T06:33:36;5.47;;;2.25;;
79456;SDS011;69494;43.654;3.884;2023-06-14T06:36:01;4.70;;;1.67;;
79456;SDS011;69494;43.654;3.884;2023-06-14T06:38:27;5.82;;;1.95;;
79456;SDS011;69494;43.654;3.884;2023-06-14T06:40:52;7.00;;;1.90;;
79456;SDS011;69494;43.654;3.884;2023-06-14T06:43:19;5.13;;;1.80;;
79456;SDS011;69494;43.654;3.884;2023-06-14T06:45:44;6.03;;;2.60;;
79456;SDS011;69494;43.654;3.884;2023-06-14T06:48:09;6.67;;;1.83;;
79456;SDS011;69494;43.654;3.884;2023-06-14T06:50:35;5.88;;;2.17;;
79456;SDS011;69494;43.654;3.884;2023-06-14T06:53:00;3.97;;;1.48;;
79456;SDS011;69494;43.654;3.884;2023-06-14T06:55:26;6.10;;;2.30;;
79456;SDS011;69494;43.654;3.884;2023-06-14T06:57:51;5.57;;;1.90;;
79456;SDS011;69494;43.654;3.884;2023-06-14T07:00:17;5.13;;;1.80;;
79456;SDS011;69494;43.654;3.884;2023-06-14T07:02:43;4.43;;;1.85;;
79456;SDS011;69494;43.654;3.884;2023-06-14T07:05:08;4.15;;;1.63;;
79456;SDS011;69494;43.654;3.884;2023-06-14T07:07:34;4.95;;;1.85;;
79456;SDS011;69494;43.654;3.884;2023-06-14T07:09:59;4.50;;;1.63;;
79456;SDS011;69494;43.654;3.884;2023-06-14T07:12:29;3.80;;;1.70;;
79456;SDS011;69494;43.654;3.884;2023-06-14T07:14:55;4.75;;;1.80;;
79456;SDS011;69494;43.654;3.884;2023-06-14T07:17:20;5.32;;;1.88;;
79456;SDS011;69494;43.654;3.884;2023-06-14T07:19:45;5.57;;;1.92;;
79456;SDS011;69494;43.654;3.884;2023-06-14T07:22:10;4.60;;;1.93;;
79456;SDS011;69494;43.654;3.884;2023-06-14T07:24:36;4.37;;;1.90;;
79456;SDS011;69494;43.654;3.884;2023-06-14T07:27:01;4.05;;;1.60;;
79456;SDS011;69494;43.654;3.884;2023-06-14T07:29:28;5.78;;;1.98;;
79456;SDS011;69494;43.654;3.884;2023-06-14T07:31:53;20.90;;;2.53;;
79456;SDS011;69494;43.654;3.884;2023-06-14T07:34:18;14.23;;;1.98;;
79456;SDS011;69494;43.654;3.884;2023-06-14T07:36:43;6.07;;;1.63;;
79456;SDS011;69494;43.654;3.884;2023-06-14T07:39:10;6.88;;;1.67;;
79456;SDS011;69494;43.654;3.884;2023-06-14T07:41:35;6.10;;;1.88;;
79456;SDS011;69494;43.654;3.884;2023-06-14T07:44:00;5.93;;;1.77;;
79456;SDS011;69494;43.654;3.884;2023-06-14T07:46:25;5.90;;;1.77;;
79456;SDS011;69494;43.654;3.884;2023-06-14T07:48:51;6.32;;;1.67;;
79456;SDS011;69494;43.654;3.884;2023-06-14T07:51:16;6.65;;;1.90;;
79456;SDS011;69494;43.654;3.884;2023-06-14T07:53:41;5.65;;;1.50;;
79456;SDS011;69494;43.654;3.884;2023-06-14T07:56:07;5.55;;;1.73;;
79456;SDS011;69494;43.654;3.884;2023-06-14T07:58:32;4.28;;;1.65;;
79456;SDS011;69494;43.654;3.884;2023-06-14T08:00:58;4.32;;;1.60;;
79456;SDS011;69494;43.654;3.884;2023-06-14T08:03:24;4.53;;;1.83;;
79456;SDS011;69494;43.654;3.884;2023-06-14T08:05:50;4.90;;;1.77;;
79456;SDS011;69494;43.654;3.884;2023-06-14T08:08:16;4.25;;;1.70;;
79456;SDS011;69494;43.654;3.884;2023-06-14T08:10:41;3.92;;;1.60;;
79456;SDS011;69494;43.654;3.884;2023-06-14T08:13:07;4.38;;;1.55;;
79456;SDS011;69494;43.654;3.884;2023-06-14T08:15:32;3.83;;;1.50;;
79456;SDS011;69494;43.654;3.884;2023-06-14T08:17:58;4.65;;;1.60;;
79456;SDS011;69494;43.654;3.884;2023-06-14T08:20:25;4.10;;;1.63;;
79456;SDS011;69494;43.654;3.884;2023-06-14T08:22:50;3.10;;;1.30;;
79456;SDS011;69494;43.654;3.884;2023-06-14T08:25:20;4.78;;;1.80;;
79456;SDS011;69494;43.654;3.884;2023-06-14T08:27:45;4.25;;;1.35;;
79456;SDS011;69494;43.654;3.884;2023-06-14T08:30:10;4.60;;;1.52;;
79456;SDS011;69494;43.654;3.884;2023-06-14T08:32:36;4.90;;;1.80;;
79456;SDS011;69494;43.654;3.884;2023-06-14T08:35:01;5.18;;;1.98;;
79456;SDS011;69494;43.654;3.884;2023-06-14T08:37:27;3.75;;;1.40;;
79456;SDS011;69494;43.654;3.884;2023-06-14T08:39:52;4.87;;;1.50;;
79456;SDS011;69494;43.654;3.884;2023-06-14T08:42:17;4.27;;;1.60;;
79456;SDS011;69494;43.654;3.884;2023-06-14T08:44:43;3.60;;;1.35;;
79456;SDS011;69494;43.654;3.884;2023-06-14T08:47:09;3.60;;;1.60;;
79456;SDS011;69494;43.654;3.884;2023-06-14T08:49:35;4.20;;;1.67;;
79456;SDS011;69494;43.654;3.884;2023-06-14T08:52:01;4.32;;;1.73;;
79456;SDS011;69494;43.654;3.884;2023-06-14T08:54:29;4.25;;;1.60;;
79456;SDS011;69494;43.654;3.884;2023-06-14T08:56:56;4.07;;;1.80;;
79456;SDS011;69494;43.654;3.884;2023-06-14T08:59:27;4.15;;;1.70;;
79456;SDS011;69494;43.654;3.884;2023-06-14T09:01:53;3.63;;;1.48;;
79456;SDS011;69494;43.654;3.884;2023-06-14T09:04:22;3.85;;;1.42;;
79456;SDS011;69494;43.654;3.884;2023-06-14T09:06:47;3.95;;;1.50;;
79456;SDS011;69494;43.654;3.884;2023-06-14T09:09:18;3.63;;;1.65;;
79456;SDS011;69494;43.654;3.884;2023-06-14T09:11:43;4.28;;;1.83;;
79456;SDS011;69494;43.654;3.884;2023-06-14T09:14:09;3.80;;;1.75;;
79456;SDS011;69494;43.654;3.884;2023-06-14T09:16:34;4.72;;;1.50;;
79456;SDS011;69494;43.654;3.884;2023-06-14T09:18:59;3.83;;;1.60;;
79456;SDS011;69494;43.654;3.884;2023-06-14T09:21:25;5.70;;;1.67;;
79456;SDS011;69494;43.654;3.884;2023-06-14T09:23:50;3.40;;;1.27;;
79456;SDS011;69494;43.654;3.884;2023-06-14T09:26:18;3.78;;;1.60;;
79456;SDS011;69494;43.654;3.884;2023-06-14T09:28:48;4.03;;;1.60;;
79456;SDS011;69494;43.654;3.884;2023-06-14T09:31:14;3.22;;;1.52;;
79456;SDS011;69494;43.654;3.884;2023-06-14T09:33:47;5.65;;;1.50;;
79456;SDS011;69494;43.654;3.884;2023-06-14T09:38:39;3.88;;;1.48;;
79456;SDS011;69494;43.654;3.884;2023-06-14T09:41:05;3.92;;;1.65;;
79456;SDS011;69494;43.654;3.884;2023-06-14T09:43:30;4.38;;;1.70;;
79456;SDS011;69494;43.654;3.884;2023-06-14T09:45:59;3.88;;;1.50;;
79456;SDS011;69494;43.654;3.884;2023-06-14T09:48:25;4.20;;;1.70;;
79456;SDS011;69494;43.654;3.884;2023-06-14T09:50:50;3.88;;;1.60;;
79456;SDS011;69494;43.654;3.884;2023-06-14T09:53:15;3.50;;;1.60;;
79456;SDS011;69494;43.654;3.884;2023-06-14T09:55:41;4.38;;;1.58;;
79456;SDS011;69494;43.654;3.884;2023-06-14T09:58:07;3.78;;;1.63;;
79456;SDS011;69494;43.654;3.884;2023-06-14T10:00:33;4.25;;;1.55;;
79456;SDS011;69494;43.654;3.884;2023-06-14T10:03:10;4.00;;;1.45;;
79456;SDS011;69494;43.654;3.884;2023-06-14T10:05:36;3.72;;;1.38;;
79456;SDS011;69494;43.654;3.884;2023-06-14T10:08:08;3.72;;;1.58;;
79456;SDS011;69494;43.654;3.884;2023-06-14T10:10:34;4.22;;;1.60;;
79456;SDS011;69494;43.654;3.884;2023-06-14T10:12:59;4.18;;;1.50;;
79456;SDS011;69494;43.654;3.884;2023-06-14T10:23:35;3.83;;;1.63;;
79456;SDS011;69494;43.654;3.884;2023-06-14T10:26:02;3.58;;;1.40;;
79456;SDS011;69494;43.654;3.884;2023-06-14T10:28:27;3.03;;;1.27;;
79456;SDS011;69494;43.654;3.884;2023-06-14T10:33:33;3.63;;;1.50;;
79456;SDS011;69494;43.654;3.884;2023-06-14T10:36:08;3.60;;;1.50;;
79456;SDS011;69494;43.654;3.884;2023-06-14T10:38:34;2.95;;;1.27;;
79456;SDS011;69494;43.654;3.884;2023-06-14T10:41:01;3.70;;;1.30;;
79456;SDS011;69494;43.654;3.884;2023-06-14T10:43:26;4.15;;;1.40;;
79456;SDS011;69494;43.654;3.884;2023-06-14T10:48:40;4.28;;;1.50;;
79456;SDS011;69494;43.654;3.884;2023-06-14T10:51:05;3.95;;;1.27;;
79456;SDS011;69494;43.654;3.884;2023-06-14T10:53:36;3.13;;;1.33;;
79456;SDS011;69494;43.654;3.884;2023-06-14T10:56:07;3.83;;;1.65;;
79456;SDS011;69494;43.654;3.884;2023-06-14T10:58:32;3.75;;;1.20;;
79456;SDS011;69494;43.654;3.884;2023-06-14T11:00:58;3.23;;;1.37;;
79456;SDS011;69494;43.654;3.884;2023-06-14T11:05:52;3.42;;;1.42;;
79456;SDS011;69494;43.654;3.884;2023-06-14T11:10:59;3.80;;;1.50;;
79456;SDS011;69494;43.654;3.884;2023-06-14T11:13:27;3.15;;;1.10;;
79456;SDS011;69494;43.654;3.884;2023-06-14T11:15:53;3.70;;;1.33;;
79456;SDS011;69494;43.654;3.884;2023-06-14T11:18:21;4.15;;;1.52;;
79456;SDS011;69494;43.654;3.884;2023-06-14T11:20:49;4.20;;;1.25;;
79456;SDS011;69494;43.654;3.884;2023-06-14T11:23:15;7.28;;;1.70;;
79456;SDS011;69494;43.654;3.884;2023-06-14T11:25:40;3.75;;;1.52;;
79456;SDS011;69494;43.654;3.884;2023-06-14T11:28:06;3.28;;;1.20;;
79456;SDS011;69494;43.654;3.884;2023-06-14T11:30:31;3.58;;;1.33;;
79456;SDS011;69494;43.654;3.884;2023-06-14T11:32:57;3.22;;;1.40;;
79456;SDS011;69494;43.654;3.884;2023-06-14T11:35:22;3.92;;;1.58;;
79456;SDS011;69494;43.654;3.884;2023-06-14T11:37:48;3.15;;;1.25;;
79456;SDS011;69494;43.654;3.884;2023-06-14T11:40:14;3.67;;;1.42;;
79456;SDS011;69494;43.654;3.884;2023-06-14T11:42:40;3.97;;;1.50;;
79456;SDS011;69494;43.654;3.884;2023-06-14T11:45:09;4.10;;;1.80;;
79456;SDS011;69494;43.654;3.884;2023-06-14T11:47:35;4.03;;;1.58;;
79456;SDS011;69494;43.654;3.884;2023-06-14T11:50:01;4.40;;;1.88;;
79456;SDS011;69494;43.654;3.884;2023-06-14T11:52:27;3.72;;;1.63;;
79456;SDS011;69494;43.654;3.884;2023-06-14T11:54:52;3.40;;;1.50;;
79456;SDS011;69494;43.654;3.884;2023-06-14T11:57:18;3.38;;;1.63;;
79456;SDS011;69494;43.654;3.884;2023-06-14T11:59:43;4.80;;;1.90;;
79456;SDS011;69494;43.654;3.884;2023-06-14T12:02:09;5.22;;;1.70;;
79456;SDS011;69494;43.654;3.884;2023-06-14T12:04:35;4.05;;;1.67;;
79456;SDS011;69494;43.654;3.884;2023-06-14T12:07:10;4.03;;;1.70;;
79456;SDS011;69494;43.654;3.884;2023-06-14T12:09:40;5.15;;;1.67;;
79456;SDS011;69494;43.654;3.884;2023-06-14T12:12:08;4.10;;;1.70;;
79456;SDS011;69494;43.654;3.884;2023-06-14T12:14:33;3.85;;;1.73;;
79456;SDS011;69494;43.654;3.884;2023-06-14T12:17:05;4.63;;;1.80;;
79456;SDS011;69494;43.654;3.884;2023-06-14T12:19:31;4.28;;;1.73;;
79456;SDS011;69494;43.654;3.884;2023-06-14T12:21:57;4.05;;;1.80;;
79456;SDS011;69494;43.654;3.884;2023-06-14T12:24:27;4.20;;;1.90;;
79456;SDS011;69494;43.654;3.884;2023-06-14T12:26:52;4.63;;;2.00;;
79456;SDS011;69494;43.654;3.884;2023-06-14T12:29:18;4.55;;;1.98;;
79456;SDS011;69494;43.654;3.884;2023-06-14T12:31:44;4.15;;;2.00;;
79456;SDS011;69494;43.654;3.884;2023-06-14T12:34:09;5.88;;;2.08;;
79456;SDS011;69494;43.654;3.884;2023-06-14T12:36:35;4.70;;;2.00;;
79456;SDS011;69494;43.654;3.884;2023-06-14T12:39:05;5.47;;;1.98;;
79456;SDS011;69494;43.654;3.884;2023-06-14T12:41:31;5.13;;;1.80;;
79456;SDS011;69494;43.654;3.884;2023-06-14T12:43:56;5.23;;;2.10;;
79456;SDS011;69494;43.654;3.884;2023-06-14T12:46:24;4.38;;;2.03;;
79456;SDS011;69494;43.654;3.884;2023-06-14T12:48:49;4.73;;;2.10;;
79456;SDS011;69494;43.654;3.884;2023-06-14T12:51:15;5.40;;;2.13;;
79456;SDS011;69494;43.654;3.884;2023-06-14T12:53:40;5.13;;;2.00;;
79456;SDS011;69494;43.654;3.884;2023-06-14T12:56:05;4.82;;;2.10;;
79456;SDS011;69494;43.654;3.884;2023-06-14T12:58:31;5.00;;;2.03;;
79456;SDS011;69494;43.654;3.884;2023-06-14T13:00:56;5.00;;;2.20;;
79456;SDS011;69494;43.654;3.884;2023-06-14T13:03:21;5.53;;;2.28;;
79456;SDS011;69494;43.654;3.884;2023-06-14T13:05:47;3.90;;;1.70;;
79456;SDS011;69494;43.654;3.884;2023-06-14T13:08:12;5.07;;;2.10;;
79456;SDS011;69494;43.654;3.884;2023-06-14T13:10:38;5.32;;;2.40;;
79456;SDS011;69494;43.654;3.884;2023-06-14T13:13:03;4.70;;;2.30;;
79456;SDS011;69494;43.654;3.884;2023-06-14T13:15:29;3.90;;;1.80;;
79456;SDS011;69494;43.654;3.884;2023-06-14T13:17:54;5.90;;;2.47;;
79456;SDS011;69494;43.654;3.884;2023-06-14T13:20:20;3.92;;;1.80;;
79456;SDS011;69494;43.654;3.884;2023-06-14T13:22:45;5.13;;;2.42;;
79456;SDS011;69494;43.654;3.884;2023-06-14T13:25:10;5.65;;;2.30;;
79456;SDS011;69494;43.654;3.884;2023-06-14T13:27:36;4.90;;;1.90;;
79456;SDS011;69494;43.654;3.884;2023-06-14T13:30:01;5.78;;;1.88;;
79456;SDS011;69494;43.654;3.884;2023-06-14T13:32:26;3.80;;;1.85;;
79456;SDS011;69494;43.654;3.884;2023-06-14T13:34:52;4.20;;;2.05;;
79456;SDS011;69494;43.654;3.884;2023-06-14T13:37:17;3.67;;;1.70;;
79456;SDS011;69494;43.654;3.884;2023-06-14T13:39:42;4.00;;;2.03;;
79456;SDS011;69494;43.654;3.884;2023-06-14T13:42:07;4.13;;;1.90;;
79456;SDS011;69494;43.654;3.884;2023-06-14T13:44:33;5.07;;;2.22;;
79456;SDS011;69494;43.654;3.884;2023-06-14T13:46:58;4.83;;;2.10;;
79456;SDS011;69494;43.654;3.884;2023-06-14T13:49:23;3.83;;;1.87;;
79456;SDS011;69494;43.654;3.884;2023-06-14T13:51:48;5.57;;;2.00;;
79456;SDS011;69494;43.654;3.884;2023-06-14T13:54:14;4.87;;;2.20;;
79456;SDS011;69494;43.654;3.884;2023-06-14T13:56:42;4.50;;;2.00;;
79456;SDS011;69494;43.654;3.884;2023-06-14T13:59:07;6.07;;;2.90;;
79456;SDS011;69494;43.654;3.884;2023-06-14T14:01:32;4.27;;;1.93;;
79456;SDS011;69494;43.654;3.884;2023-06-14T14:03:58;4.05;;;1.92;;
79456;SDS011;69494;43.654;3.884;2023-06-14T14:06:23;5.32;;;2.28;;
79456;SDS011;69494;43.654;3.884;2023-06-14T14:08:49;5.32;;;2.28;;
79456;SDS011;69494;43.654;3.884;2023-06-14T14:11:14;4.60;;;2.17;;
79456;SDS011;69494;43.654;3.884;2023-06-14T14:13:41;5.25;;;2.45;;
79456;SDS011;69494;43.654;3.884;2023-06-14T14:16:07;4.85;;;2.03;;
79456;SDS011;69494;43.654;3.884;2023-06-14T14:18:32;5.30;;;2.10;;
79456;SDS011;69494;43.654;3.884;2023-06-14T14:20:58;5.85;;;2.33;;
79456;SDS011;69494;43.654;3.884;2023-06-14T14:23:23;4.90;;;2.10;;
79456;SDS011;69494;43.654;3.884;2023-06-14T14:25:49;5.45;;;2.15;;
79456;SDS011;69494;43.654;3.884;2023-06-14T14:28:14;4.80;;;2.10;;
79456;SDS011;69494;43.654;3.884;2023-06-14T14:33:06;4.70;;;2.00;;
79456;SDS011;69494;43.654;3.884;2023-06-14T14:35:32;4.65;;;1.98;;
79456;SDS011;69494;43.654;3.884;2023-06-14T14:37:57;6.22;;;2.35;;
79456;SDS011;69494;43.654;3.884;2023-06-14T14:40:22;4.63;;;2.08;;
79456;SDS011;69494;43.654;3.884;2023-06-14T14:42:47;4.88;;;2.35;;
79456;SDS011;69494;43.654;3.884;2023-06-14T14:45:13;4.45;;;2.15;;
79456;SDS011;69494;43.654;3.884;2023-06-14T14:47:38;4.57;;;2.58;;
79456;SDS011;69494;43.654;3.884;2023-06-14T14:50:04;6.45;;;2.38;;
79456;SDS011;69494;43.654;3.884;2023-06-14T14:52:29;5.72;;;2.58;;
79456;SDS011;69494;43.654;3.884;2023-06-14T14:54:54;5.18;;;2.40;;
79456;SDS011;69494;43.654;3.884;2023-06-14T14:57:20;5.38;;;2.25;;
79456;SDS011;69494;43.654;3.884;2023-06-14T14:59:45;4.23;;;2.10;;
79456;SDS011;69494;43.654;3.884;2023-06-14T15:02:10;5.47;;;2.37;;
79456;SDS011;69494;43.654;3.884;2023-06-14T15:04:36;6.30;;;2.72;;
79456;SDS011;69494;43.654;3.884;2023-06-14T15:07:01;5.23;;;2.70;;
79456;SDS011;69494;43.654;3.884;2023-06-14T15:09:26;5.25;;;2.50;;
79456;SDS011;69494;43.654;3.884;2023-06-14T15:11:51;5.33;;;2.63;;